createdAt,value
2023-02-19T00:00:02.696Z,35.92
2023-02-19T00:01:02.459Z,35.64
2023-02-19T00:02:02.518Z,34.78
2023-02-19T00:03:02.515Z,34.67
2023-02-19T00:04:02.482Z,34.73
2023-02-19T00:05:02.501Z,35.31
2023-02-19T00:06:02.430Z,35.30
2023-02-19T00:07:02.495Z,35.49
2023-02-19T00:08:02.399Z,35.43
2023-02-19T00:09:02.441Z,35.24
2023-02-19T00:10:02.445Z,35.86
2023-02-19T00:11:02.377Z,35.38
2023-02-19T00:12:02.377Z,35.55
2023-02-19T00:13:02.385Z,35.10
2023-02-19T00:14:02.372Z,35.27
2023-02-19T00:15:02.657Z,35.01
2023-02-19T00:22:02.447Z,35.07
2023-02-19T00:23:02.469Z,34.90
2023-02-19T00:25:22.210Z,34.34
2023-02-19T00:26:22.088Z,34.36
2023-02-19T00:27:22.120Z,34.79
2023-02-19T00:28:22.140Z,34.87
2023-02-19T00:29:22.046Z,35.01
2023-02-19T00:30:22.080Z,34.70
2023-02-19T00:31:22.191Z,34.38
2023-02-19T00:32:22.107Z,34.78
2023-02-19T00:33:22.040Z,34.79
2023-02-19T00:34:21.995Z,34.58
2023-02-19T00:35:22.056Z,34.29
2023-02-19T00:36:22.075Z,35.26
2023-02-19T00:37:22.067Z,34.74
2023-02-19T00:38:22.117Z,34.25
2023-02-19T00:39:21.979Z,33.54
2023-02-19T00:40:21.988Z,33.39
2023-02-19T00:41:21.979Z,33.48
2023-02-19T00:42:22.346Z,33.72
2023-02-19T00:43:22.029Z,34.62
2023-02-19T00:44:21.953Z,35.06
2023-02-19T00:45:21.967Z,34.76
2023-02-19T00:46:22.060Z,34.63
2023-02-19T00:47:22.123Z,34.25
2023-02-19T00:48:21.941Z,34.62
2023-02-19T00:49:21.997Z,34.77
2023-02-19T00:50:21.948Z,34.72
2023-02-19T00:51:21.908Z,35.92
2023-02-19T00:52:21.914Z,35.67
2023-02-19T00:53:21.885Z,35.60
2023-02-19T00:54:21.898Z,35.52
2023-02-19T00:55:21.886Z,35.57
2023-02-19T00:56:21.916Z,35.46
2023-02-19T00:57:21.905Z,35.32
2023-02-19T00:58:21.854Z,35.69
2023-02-19T00:59:21.855Z,35.35
2023-02-19T01:00:21.872Z,35.06
2023-02-19T01:01:21.866Z,35.05
2023-02-19T01:02:21.866Z,35.00
2023-02-19T01:03:21.846Z,35.03
2023-02-19T01:04:22.048Z,35.39
2023-02-19T01:05:21.784Z,35.46
2023-02-19T01:06:21.803Z,35.17
2023-02-19T01:07:21.894Z,35.08
2023-02-19T01:08:21.776Z,35.50
2023-02-19T01:09:21.810Z,35.24
2023-02-19T01:10:22.280Z,35.17
2023-02-19T01:11:21.715Z,35.22
2023-02-19T01:12:21.725Z,35.30
2023-02-19T01:13:21.705Z,35.33
2023-02-19T01:14:21.715Z,36.06
2023-02-19T01:15:21.717Z,36.38
2023-02-19T01:16:21.812Z,36.56
2023-02-19T01:29:42.145Z,36.63
2023-02-19T01:30:41.992Z,36.65
2023-02-19T01:31:42.326Z,36.87
2023-02-19T01:32:41.914Z,36.69
2023-02-19T01:33:41.895Z,36.71
2023-02-19T01:34:41.876Z,36.87
2023-02-19T01:35:41.885Z,37.01
2023-02-19T01:36:42.862Z,37.03
2023-02-19T01:37:41.873Z,37.12
2023-02-19T01:38:41.865Z,37.52
2023-02-19T01:39:41.853Z,38.49
2023-02-19T01:40:41.865Z,38.59
2023-02-19T01:41:41.854Z,38.85
2023-02-19T01:42:41.839Z,38.95
2023-02-19T01:50:41.771Z,38.73
2023-02-19T01:51:41.761Z,38.72
2023-02-19T01:52:42.261Z,38.82
2023-02-19T01:53:41.797Z,38.86
2023-02-19T01:54:41.801Z,39.11
2023-02-19T01:55:41.757Z,38.66
2023-02-19T01:56:41.718Z,38.37
2023-02-19T01:57:41.732Z,38.17
2023-02-19T01:58:41.723Z,37.94
2023-02-19T02:00:41.822Z,37.47
2023-02-19T02:01:41.730Z,37.48
2023-02-19T02:02:41.709Z,37.89
2023-02-19T02:03:41.725Z,38.33
2023-02-19T02:04:41.716Z,38.06
2023-02-19T02:05:41.676Z,38.04
2023-02-19T02:06:41.669Z,37.57
2023-02-19T02:22:39.899Z,37.75
2023-02-19T02:23:39.640Z,37.78
2023-02-19T02:24:39.555Z,37.74
2023-02-19T02:25:39.676Z,37.84
2023-02-19T02:26:39.561Z,37.89
2023-02-19T02:27:39.556Z,37.86
2023-02-19T02:30:39.552Z,38.30
2023-02-19T02:31:39.697Z,38.03
2023-02-19T02:32:39.581Z,38.39
2023-02-19T02:33:39.470Z,38.27
2023-02-19T02:34:39.487Z,37.88
2023-02-19T02:35:39.513Z,38.02
2023-02-19T02:36:39.513Z,37.73
2023-02-19T02:37:39.469Z,37.68
2023-02-19T02:38:45.408Z,38.14
2023-02-19T02:39:40.476Z,37.90
2023-02-19T02:40:39.451Z,37.58
2023-02-19T02:41:39.442Z,37.55
2023-02-19T02:42:39.556Z,37.75
2023-02-19T02:43:39.424Z,37.93
2023-02-19T02:44:39.442Z,37.91
2023-02-19T02:45:39.500Z,38.28
2023-02-19T02:46:39.391Z,37.90
2023-02-19T02:47:39.473Z,37.75
2023-02-19T02:48:39.470Z,37.74
2023-02-19T02:49:39.433Z,37.71
2023-02-19T02:50:40.251Z,37.39
2023-02-19T02:51:39.535Z,37.54
2023-02-19T02:52:39.606Z,37.65
2023-02-19T02:53:39.836Z,37.76
2023-02-19T02:54:39.720Z,37.62
2023-02-19T02:55:39.756Z,37.67
2023-02-19T02:56:39.969Z,37.46
2023-02-19T02:59:02.128Z,38.18
2023-02-19T03:13:47.649Z,38.78
2023-02-19T03:14:47.454Z,38.94
2023-02-19T03:15:47.186Z,39.06
2023-02-19T03:16:47.171Z,39.11
2023-02-19T03:17:47.068Z,39.53
2023-02-19T03:18:47.092Z,39.48
2023-02-19T03:19:47.051Z,39.55
2023-02-19T03:20:47.077Z,39.53
2023-02-19T03:21:47.108Z,39.42
2023-02-19T03:22:47.016Z,39.60
2023-02-19T03:23:47.055Z,39.33
2023-02-19T03:24:47.097Z,39.22
2023-02-19T03:25:47.019Z,39.29
2023-02-19T03:26:46.999Z,39.20
2023-02-19T03:27:47.076Z,39.40
2023-02-19T03:28:47.074Z,39.41
2023-02-19T03:29:47.523Z,39.06
2023-02-19T03:30:46.982Z,39.05
2023-02-19T03:31:47.110Z,39.14
2023-02-19T03:52:14.183Z,40.13
2023-02-19T03:53:27.328Z,40.25
2023-02-19T03:55:41.919Z,40.14
2023-02-19T03:58:01.245Z,40.39
2023-02-19T04:06:00.359Z,40.70
2023-02-19T04:16:19.279Z,40.72
2023-02-19T04:18:38.321Z,40.73
2023-02-19T04:19:39.455Z,40.58
2023-02-19T04:27:17.678Z,41.26
2023-02-19T04:28:17.757Z,41.26
2023-02-19T04:29:17.352Z,41.32
2023-02-19T04:30:17.377Z,41.41
2023-02-19T04:31:17.444Z,41.14
2023-02-19T04:32:17.316Z,40.87
2023-02-19T04:33:17.302Z,40.87
2023-02-19T04:34:17.365Z,40.78
2023-02-19T04:35:17.286Z,41.10
2023-02-19T04:37:37.177Z,40.93
2023-02-19T04:38:37.238Z,40.63
2023-02-19T04:39:37.018Z,40.52
2023-02-19T04:40:36.992Z,40.44
2023-02-19T04:41:37.043Z,40.67
2023-02-19T04:42:37.006Z,40.66
2023-02-19T04:43:37.008Z,40.79
2023-02-19T04:44:37.073Z,40.55
2023-02-19T04:45:37.371Z,40.55
2023-02-19T04:46:36.970Z,40.37
2023-02-19T04:47:37.012Z,40.65
2023-02-19T04:48:36.966Z,40.50
2023-02-19T04:49:37.017Z,40.56
2023-02-19T04:50:36.953Z,40.70
2023-02-19T04:51:36.964Z,40.30
2023-02-19T04:52:36.974Z,40.22
2023-02-19T04:53:36.917Z,40.44
2023-02-19T04:54:36.921Z,40.03
2023-02-19T04:55:36.932Z,39.88
2023-02-19T04:56:36.896Z,39.91
2023-02-19T04:57:36.933Z,40.08
2023-02-19T04:58:37.035Z,40.24
2023-02-19T04:59:37.123Z,40.41
2023-02-19T05:00:37.132Z,40.53
2023-02-19T05:01:37.258Z,40.91
2023-02-19T05:02:37.250Z,40.64
2023-02-19T05:03:37.293Z,40.42
2023-02-19T05:04:37.459Z,40.31
2023-02-19T05:05:37.459Z,40.42
2023-02-19T05:06:37.553Z,40.47
2023-02-19T05:07:37.553Z,40.16
2023-02-19T05:08:37.635Z,40.17
2023-02-19T05:09:37.749Z,40.38
2023-02-19T05:10:37.774Z,40.44
2023-02-19T05:11:37.807Z,40.47
2023-02-19T05:12:37.923Z,40.77
2023-02-19T05:13:37.999Z,40.50
2023-02-19T05:14:38.014Z,40.58
2023-02-19T05:15:54.333Z,40.76
2023-02-19T05:20:54.492Z,41.23
2023-02-19T05:26:38.418Z,41.36
2023-02-19T05:27:38.065Z,41.26
2023-02-19T05:28:38.106Z,41.17
2023-02-19T05:29:38.023Z,41.66
2023-02-19T05:30:38.028Z,41.79
2023-02-19T05:31:38.256Z,41.55
2023-02-19T05:32:38.099Z,41.53
2023-02-19T05:33:38.345Z,41.31
2023-02-19T05:34:37.983Z,41.56
2023-02-19T05:35:38.047Z,41.39
2023-02-19T05:36:37.994Z,41.56
2023-02-19T05:37:38.011Z,41.72
2023-02-19T05:38:37.973Z,41.90
2023-02-19T05:39:38.014Z,42.02
2023-02-19T05:40:37.992Z,41.65
2023-02-19T05:41:37.937Z,41.47
2023-02-19T05:42:37.956Z,41.77
2023-02-19T05:43:37.952Z,41.74
2023-02-19T05:44:37.972Z,41.74
2023-02-19T05:45:37.926Z,41.68
2023-02-19T05:46:37.965Z,41.62
2023-02-19T05:47:37.989Z,41.81
2023-02-19T05:48:37.902Z,41.50
2023-02-19T05:49:37.921Z,41.46
2023-02-19T05:50:39.824Z,41.37
2023-02-19T05:51:37.920Z,41.18
2023-02-19T05:52:37.867Z,41.16
2023-02-19T05:53:37.843Z,40.96
2023-02-19T05:54:37.852Z,40.90
2023-02-19T05:55:37.854Z,41.55
2023-02-19T05:56:37.868Z,42.14
2023-02-19T05:57:37.873Z,42.22
2023-02-19T05:58:37.820Z,42.30
2023-02-19T05:59:37.865Z,42.69
2023-02-19T06:00:37.820Z,42.47
2023-02-19T06:01:37.884Z,42.48
2023-02-19T06:02:37.890Z,42.42
2023-02-19T06:03:37.962Z,42.57
2023-02-19T06:04:37.960Z,42.86
2023-02-19T06:05:37.962Z,42.72
2023-02-19T06:06:38.066Z,42.62
2023-02-19T06:07:38.085Z,42.49
2023-02-19T06:08:38.056Z,42.58
2023-02-19T06:09:38.105Z,42.33
2023-02-19T06:10:38.091Z,42.14
2023-02-19T06:11:38.115Z,42.13
2023-02-19T06:12:38.074Z,42.18
2023-02-19T06:13:38.116Z,42.28
2023-02-19T06:14:38.139Z,42.29
2023-02-19T06:15:38.103Z,42.19
2023-02-19T06:16:38.108Z,42.24
2023-02-19T06:17:38.158Z,42.34
2023-02-19T06:18:38.110Z,42.15
2023-02-19T06:19:38.141Z,42.09
2023-02-19T06:20:38.125Z,41.99
2023-02-19T06:21:38.135Z,41.98
2023-02-19T06:22:38.188Z,41.97
2023-02-19T06:23:38.245Z,41.82
2023-02-19T06:24:38.188Z,41.66
2023-02-19T06:25:38.209Z,41.71
2023-02-19T06:26:38.186Z,41.51
2023-02-19T06:27:38.218Z,41.77
2023-02-19T06:28:38.246Z,41.52
2023-02-19T06:29:38.259Z,41.40
2023-02-19T06:30:38.296Z,41.28
2023-02-19T06:31:38.434Z,41.18
2023-02-19T06:32:38.357Z,41.29
2023-02-19T06:33:38.444Z,41.56
2023-02-19T06:34:38.379Z,40.96
2023-02-19T06:35:38.390Z,41.02
2023-02-19T06:36:38.403Z,41.00
2023-02-19T06:37:38.457Z,40.90
2023-02-19T06:38:38.507Z,41.12
2023-02-19T06:39:38.545Z,41.38
2023-02-19T06:40:38.652Z,41.23
2023-02-19T06:41:38.714Z,41.24
2023-02-19T06:48:39.876Z,41.08
2023-02-19T06:49:39.982Z,41.24
2023-02-19T08:03:38.568Z,39.60
2023-02-19T08:04:38.654Z,39.59
2023-02-19T08:05:38.871Z,39.99
2023-02-19T08:06:38.235Z,40.23
2023-02-19T08:07:38.486Z,40.00
2023-02-19T08:08:37.963Z,39.74
2023-02-19T08:09:37.987Z,39.69
2023-02-19T08:10:38.350Z,39.82
2023-02-19T08:11:38.284Z,39.80
2023-02-19T08:12:38.380Z,39.84
2023-02-19T08:14:58.984Z,39.76
2023-02-19T08:21:56.116Z,39.08
2023-02-19T08:34:55.862Z,38.71
2023-02-19T08:35:55.877Z,38.86
2023-02-19T08:36:55.833Z,39.11
2023-02-19T08:37:55.836Z,38.67
2023-02-19T08:38:55.843Z,38.76
2023-02-19T08:39:55.956Z,38.24
2023-02-19T08:40:56.111Z,37.46
2023-02-19T08:41:55.941Z,36.65
2023-02-19T08:42:55.898Z,35.57
2023-02-19T08:43:56.029Z,34.27
2023-02-19T08:44:55.965Z,33.51
2023-02-19T08:45:56.114Z,31.39
2023-02-19T08:46:56.032Z,28.99
2023-02-19T08:47:56.087Z,27.95
2023-02-19T08:59:56.475Z,25.32
2023-02-19T09:00:56.443Z,25.07
2023-02-19T09:01:56.452Z,24.73
2023-02-19T09:02:56.472Z,23.53
2023-02-19T09:03:56.568Z,22.53
2023-02-19T09:04:56.522Z,22.31
2023-02-19T09:05:56.596Z,21.95
2023-02-19T09:06:56.604Z,21.78
2023-02-19T09:07:56.642Z,22.18
2023-02-19T09:08:56.644Z,22.19
2023-02-19T09:09:56.651Z,22.84
2023-02-19T09:10:56.725Z,23.50
2023-02-19T09:11:56.728Z,24.63
2023-02-19T09:12:56.767Z,24.31
2023-02-19T09:13:56.808Z,24.21
2023-02-19T09:14:56.792Z,23.48
2023-02-19T09:15:56.956Z,22.49
2023-02-19T09:16:56.905Z,21.84
2023-02-19T09:18:56.998Z,22.24
2023-02-19T09:19:56.988Z,21.42
2023-02-19T09:20:57.000Z,21.63
2023-02-19T09:21:57.004Z,21.46
2023-02-19T09:22:57.057Z,20.41
2023-02-19T09:23:57.129Z,20.08
2023-02-19T09:24:57.067Z,19.92
2023-02-19T09:25:57.138Z,18.76
2023-02-19T09:26:57.193Z,18.51
2023-02-19T09:27:57.224Z,19.80
2023-02-19T09:28:57.263Z,20.55
2023-02-19T09:29:57.317Z,21.62
2023-02-19T09:30:57.390Z,21.58
2023-02-19T09:31:57.308Z,21.83
2023-02-19T09:32:57.326Z,22.49
2023-02-19T09:33:57.411Z,21.91
2023-02-19T09:34:57.388Z,21.60
2023-02-19T09:35:57.416Z,22.25
2023-02-19T09:36:57.427Z,21.79
2023-02-19T09:37:57.503Z,22.02
2023-02-19T09:38:57.544Z,21.81
2023-02-19T09:39:57.547Z,22.03
2023-02-19T09:40:57.590Z,22.13
2023-02-19T09:42:57.657Z,23.45
2023-02-19T09:43:57.679Z,24.12
2023-02-19T09:44:57.670Z,23.62
2023-02-19T09:45:57.717Z,22.98
2023-02-19T09:46:57.712Z,23.64
2023-02-19T09:48:57.765Z,23.92
2023-02-19T09:49:57.760Z,24.37
2023-02-19T09:51:57.780Z,24.76
2023-02-19T09:52:57.827Z,25.30
2023-02-19T09:53:57.919Z,25.78
2023-02-19T09:54:57.933Z,26.35
2023-02-19T09:55:57.965Z,26.12
2023-02-19T09:56:57.971Z,27.05
2023-02-19T09:57:58.026Z,27.47
2023-02-19T10:04:58.182Z,28.75
2023-02-19T10:09:17.930Z,27.68
2023-02-19T10:10:18.223Z,27.23
2023-02-19T10:11:17.802Z,27.28
2023-02-19T10:12:17.996Z,26.65
2023-02-19T10:13:17.627Z,26.49
2023-02-19T10:14:17.843Z,26.68
2023-02-19T10:15:18.017Z,26.91
2023-02-19T10:16:17.652Z,27.45
2023-02-19T10:17:17.672Z,27.40
2023-02-19T10:18:17.684Z,27.93
2023-02-19T10:19:17.637Z,27.93
2023-02-19T10:20:17.746Z,27.96
2023-02-19T10:35:56.567Z,26.38
2023-02-19T10:36:56.371Z,26.48
2023-02-19T10:37:56.048Z,26.09
2023-02-19T10:38:55.973Z,26.07
2023-02-19T10:39:55.973Z,25.83
2023-02-19T10:40:56.123Z,25.83
2023-02-19T10:41:56.509Z,26.20
2023-02-19T10:42:56.234Z,26.13
2023-02-19T10:43:55.988Z,25.94
2023-02-19T10:44:55.928Z,25.41
2023-02-19T10:45:55.968Z,25.38
2023-02-19T10:46:55.932Z,25.63
2023-02-19T10:49:15.747Z,25.55
2023-02-19T10:51:34.626Z,24.73
2023-02-19T10:52:34.461Z,24.79
2023-02-19T10:53:34.423Z,24.25
2023-02-19T10:54:35.394Z,24.46
2023-02-19T10:55:35.521Z,24.81
2023-02-19T10:56:34.195Z,24.57
2023-02-19T10:57:34.185Z,24.43
2023-02-19T10:58:34.229Z,24.66
2023-02-19T10:59:34.536Z,24.51
2023-02-19T11:00:34.301Z,24.92
2023-02-19T11:01:34.152Z,24.50
2023-02-19T11:02:34.123Z,24.44
2023-02-19T11:04:53.772Z,24.98
2023-02-19T11:05:53.625Z,25.03
2023-02-19T11:06:54.143Z,24.98
2023-02-19T11:07:53.624Z,25.23
2023-02-19T11:18:48.851Z,24.84
2023-02-19T11:19:49.059Z,24.47
2023-02-19T11:20:48.760Z,24.46
2023-02-19T11:21:50.235Z,24.02
2023-02-19T11:24:09.567Z,23.24
2023-02-19T11:25:23.455Z,23.91
2023-02-19T11:26:08.392Z,23.46
2023-02-19T11:27:08.150Z,23.20
2023-02-19T11:29:29.027Z,22.75
2023-02-19T11:30:27.975Z,22.23
2023-02-19T11:31:28.321Z,22.31
2023-02-19T11:32:27.530Z,22.56
2023-02-19T11:33:27.561Z,23.15
2023-02-19T11:34:27.266Z,23.42
2023-02-19T11:35:27.490Z,22.46
2023-02-19T11:36:29.739Z,22.67
2023-02-19T11:38:47.183Z,21.66
2023-02-19T11:43:46.238Z,21.57
2023-02-19T11:44:46.533Z,21.71
2023-02-19T11:45:46.004Z,21.47
2023-02-19T11:46:47.023Z,21.28
2023-02-19T11:47:45.659Z,22.07
2023-02-19T12:13:34.364Z,19.36
2023-02-19T12:23:44.569Z,15.18
2023-02-19T12:25:54.468Z,16.51
2023-02-19T12:40:01.016Z,16.08
2023-02-19T12:42:26.391Z,16.01
2023-02-19T12:46:01.877Z,16.10
2023-02-19T12:47:02.254Z,14.96
2023-02-19T12:53:39.213Z,15.08
2023-02-19T13:09:39.130Z,15.30
2023-02-19T13:23:37.048Z,14.74
2023-02-19T14:09:11.280Z,15.41
2023-02-19T14:10:11.082Z,16.60
2023-02-19T14:14:50.240Z,15.76
2023-02-19T14:45:38.778Z,17.10
2023-02-19T14:47:51.860Z,17.31
2023-02-19T14:50:10.491Z,17.88
2023-02-19T14:51:10.514Z,18.60
2023-02-19T14:52:10.624Z,17.58
2023-02-19T14:53:09.917Z,17.71
2023-02-19T14:54:09.883Z,17.94
2023-02-19T14:55:09.919Z,17.72
2023-02-19T14:56:09.849Z,17.88
2023-02-19T14:57:09.934Z,17.71
2023-02-19T14:58:10.091Z,17.75
2023-02-19T15:04:13.473Z,18.04
2023-02-19T15:25:47.876Z,18.95
2023-02-19T15:26:47.886Z,18.95
2023-02-19T15:27:47.944Z,19.13
2023-02-19T15:28:47.876Z,19.13
2023-02-19T15:29:47.877Z,19.22
2023-02-19T15:30:47.864Z,19.45
2023-02-19T15:31:47.924Z,19.18
2023-02-19T15:32:47.834Z,18.77
2023-02-19T15:33:47.846Z,19.23
2023-02-19T15:34:47.835Z,19.09
2023-02-19T15:35:47.801Z,18.94
2023-02-19T15:36:47.823Z,19.31
2023-02-19T15:37:47.817Z,19.47
2023-02-19T15:38:48.297Z,19.25
2023-02-19T15:39:48.023Z,19.57
2023-02-19T15:40:47.864Z,19.58
2023-02-19T15:41:48.706Z,19.28
2023-02-19T15:42:49.435Z,19.40
2023-02-19T15:43:48.777Z,19.19
2023-02-19T15:44:48.633Z,19.38
2023-02-19T15:45:48.494Z,19.49
2023-02-19T15:46:48.466Z,19.26
2023-02-19T15:47:48.656Z,19.05
2023-02-19T15:51:07.512Z,18.61
2023-02-19T15:52:07.472Z,18.74
2023-02-19T15:53:07.090Z,18.78
2023-02-19T15:55:07.194Z,19.33
2023-02-19T15:56:07.402Z,19.19
2023-02-19T15:57:07.034Z,18.66
2023-02-19T15:58:07.099Z,19.03
2023-02-19T15:59:07.119Z,18.97
2023-02-19T16:00:07.022Z,18.99
2023-02-19T16:01:07.068Z,18.96
2023-02-19T16:02:07.037Z,18.83
2023-02-19T16:03:07.128Z,19.02
2023-02-19T16:04:07.036Z,18.95
2023-02-19T16:05:07.072Z,18.81
2023-02-19T16:06:06.961Z,18.89
2023-02-19T16:07:07.011Z,18.79
2023-02-19T16:08:08.131Z,18.86
2023-02-19T16:09:08.939Z,19.74
2023-02-19T16:11:27.145Z,19.26
2023-02-19T16:13:35.988Z,19.54
2023-02-19T16:14:27.291Z,19.64
2023-02-19T16:15:26.878Z,19.40
2023-02-19T16:16:26.937Z,19.73
2023-02-19T16:17:26.894Z,19.67
2023-02-19T16:43:20.433Z,21.11
2023-02-19T16:44:21.164Z,20.99
2023-02-19T16:45:20.453Z,20.81
2023-02-19T16:46:20.224Z,20.93
2023-02-19T16:47:20.355Z,21.21
2023-02-19T16:48:21.397Z,21.10
2023-02-19T16:50:39.962Z,21.09
2023-02-19T16:51:42.330Z,21.60
2023-02-19T16:54:06.270Z,21.75
2023-02-19T16:59:12.744Z,22.27
2023-02-19T17:00:12.508Z,22.40
2023-02-19T17:01:13.284Z,22.48
2023-02-19T17:02:13.188Z,21.92
2023-02-19T17:03:12.465Z,21.89
2023-02-19T17:04:12.463Z,22.04
2023-02-19T17:05:12.439Z,22.25
2023-02-19T17:06:12.477Z,22.00
2023-02-19T17:07:12.409Z,22.00
2023-02-19T17:08:12.419Z,22.29
2023-02-19T17:09:12.500Z,22.40
2023-02-19T17:10:12.421Z,22.00
2023-02-19T17:11:12.595Z,22.53
2023-02-19T17:12:12.411Z,22.54
2023-02-19T17:13:12.365Z,22.53
2023-02-19T17:14:12.381Z,24.26
2023-02-19T17:15:12.331Z,23.75
2023-02-19T17:16:12.345Z,24.50
2023-02-19T17:17:12.386Z,25.21
2023-02-19T17:18:12.375Z,25.00
2023-02-19T17:19:12.317Z,25.24
2023-02-19T17:20:12.300Z,25.53
2023-02-19T17:21:12.544Z,25.39
2023-02-19T17:22:12.280Z,25.83
2023-02-19T17:23:12.329Z,25.82
2023-02-19T17:24:12.389Z,26.05
2023-02-19T17:25:12.449Z,25.98
2023-02-19T17:26:12.369Z,26.25
2023-02-19T17:27:12.419Z,26.47
2023-02-19T17:28:12.442Z,26.43
2023-02-19T17:29:12.483Z,25.95
2023-02-19T17:30:12.589Z,26.31
2023-02-19T17:31:12.929Z,26.28
2023-02-19T17:32:12.732Z,25.99
2023-02-19T17:33:12.674Z,26.09
2023-02-19T17:34:12.813Z,26.14
2023-02-19T17:35:12.820Z,26.23
2023-02-19T17:36:12.850Z,26.15
2023-02-19T17:37:12.831Z,26.19
2023-02-19T17:38:12.904Z,26.12
2023-02-19T17:40:34.094Z,26.43
2023-02-19T17:41:35.143Z,26.38
2023-02-19T17:42:33.898Z,26.44
2023-02-19T17:43:33.408Z,26.86
2023-02-19T17:44:33.379Z,26.66
2023-02-19T17:48:46.628Z,26.87
2023-02-19T17:52:20.582Z,26.86
2023-02-19T17:53:20.478Z,26.90
2023-02-19T17:59:40.842Z,26.90
2023-02-19T18:00:41.398Z,26.97
2023-02-19T18:01:40.775Z,27.00
2023-02-19T18:02:40.317Z,27.14
2023-02-19T18:03:40.408Z,26.91
2023-02-19T18:04:41.213Z,26.93
2023-02-19T18:05:40.841Z,26.88
2023-02-19T18:12:39.752Z,26.85
2023-02-19T18:13:39.568Z,26.84
2023-02-19T18:14:39.711Z,27.04
2023-02-19T18:15:39.445Z,27.18
2023-02-19T18:16:39.410Z,27.87
2023-02-19T18:17:39.504Z,27.35
2023-02-19T18:18:39.392Z,27.14
2023-02-19T18:19:39.410Z,27.10
2023-02-19T18:20:39.490Z,27.98
2023-02-19T18:21:39.351Z,27.97
2023-02-19T18:22:39.365Z,28.12
2023-02-19T18:23:39.372Z,28.20
2023-02-19T18:24:40.204Z,28.26
2023-02-19T18:25:39.394Z,28.37
2023-02-19T18:26:39.356Z,28.38
2023-02-19T18:27:39.343Z,28.94
2023-02-19T18:28:39.642Z,29.06
2023-02-19T18:41:22.933Z,29.93
2023-02-19T18:42:24.032Z,29.98
2023-02-19T19:03:41.713Z,30.44
2023-02-19T19:31:21.481Z,30.83
2023-02-19T19:32:23.823Z,31.23
2023-02-19T19:34:41.191Z,31.32
2023-02-19T19:53:19.851Z,31.74
2023-02-19T19:59:57.855Z,31.91
2023-02-19T20:01:57.447Z,31.73
2023-02-19T20:06:16.793Z,31.92
2023-02-19T20:07:16.441Z,31.65
2023-02-19T20:08:16.512Z,32.10
2023-02-19T20:09:16.468Z,32.45
2023-02-19T20:10:16.571Z,32.06
2023-02-19T20:11:16.634Z,32.08
2023-02-19T20:12:16.752Z,31.96
2023-02-19T20:13:17.255Z,31.97
2023-02-19T20:15:36.537Z,32.71
2023-02-19T20:16:36.538Z,32.19
2023-02-19T20:17:36.185Z,32.23
2023-02-19T20:18:36.216Z,32.20
2023-02-19T20:19:36.208Z,32.12
2023-02-19T20:20:36.193Z,32.07
2023-02-19T20:21:36.168Z,32.06
2023-02-19T20:22:36.174Z,32.12
2023-02-19T20:23:36.189Z,31.98
2023-02-19T20:24:36.149Z,32.02
2023-02-19T20:25:36.157Z,31.99
2023-02-19T20:26:36.120Z,32.18
2023-02-19T20:27:36.201Z,32.14
2023-02-19T20:28:36.119Z,32.10
2023-02-19T20:29:36.099Z,32.43
2023-02-19T20:30:36.116Z,32.58
2023-02-19T20:31:36.220Z,32.71
2023-02-19T20:32:36.104Z,32.63
2023-02-19T20:33:36.065Z,32.69
2023-02-19T20:34:36.058Z,32.55
2023-02-19T20:35:36.055Z,32.55
2023-02-19T20:36:36.062Z,32.68
2023-02-19T20:37:36.032Z,32.60
2023-02-19T20:39:56.112Z,32.66
2023-02-19T20:40:56.322Z,32.78
2023-02-19T20:41:56.112Z,32.76
2023-02-19T20:42:56.029Z,33.27
2023-02-19T20:43:56.056Z,33.42
2023-02-19T20:44:56.011Z,33.23
2023-02-19T20:45:56.051Z,33.05
2023-02-19T20:46:56.003Z,32.96
2023-02-19T20:47:55.972Z,32.95
2023-02-19T20:48:56.158Z,32.83
2023-02-19T20:49:56.052Z,33.01
2023-02-19T20:50:56.009Z,33.17
2023-02-19T20:51:55.985Z,33.48
2023-02-19T20:54:16.587Z,33.57
2023-02-19T20:55:16.334Z,33.62
2023-02-19T21:01:50.316Z,33.65
2023-02-19T21:03:54.976Z,33.83
2023-02-19T21:04:54.649Z,33.73
2023-02-19T21:05:54.665Z,33.68
2023-02-19T21:06:54.663Z,33.82
2023-02-19T21:07:54.628Z,34.13
2023-02-19T21:08:54.601Z,34.16
2023-02-19T21:09:54.886Z,33.82
2023-02-19T21:10:54.625Z,34.00
2023-02-19T21:11:54.593Z,34.22
2023-02-19T21:12:54.619Z,34.11
2023-02-19T21:13:54.635Z,33.96
2023-02-19T21:14:54.648Z,34.90
2023-02-19T21:15:54.856Z,34.70
2023-02-19T21:16:54.559Z,34.64
2023-02-19T21:17:54.666Z,34.55
2023-02-19T21:18:54.687Z,34.46
2023-02-19T21:19:54.765Z,34.45
2023-02-19T21:20:54.825Z,34.43
2023-02-19T21:21:54.897Z,34.50
2023-02-19T21:22:54.907Z,34.59
2023-02-19T21:26:34.661Z,34.59
2023-02-19T21:27:34.332Z,34.65
2023-02-19T21:28:34.242Z,34.56
2023-02-19T21:29:34.292Z,34.63
2023-02-19T21:30:34.306Z,34.82
2023-02-19T21:31:34.314Z,34.93
2023-02-19T21:32:34.272Z,34.97
2023-02-19T21:33:34.210Z,35.51
2023-02-19T21:34:34.211Z,35.79
2023-02-19T21:35:34.214Z,35.33
2023-02-19T21:36:34.204Z,35.99
2023-02-19T21:37:34.245Z,35.68
2023-02-19T21:38:34.200Z,35.44
2023-02-19T21:39:34.171Z,35.42
2023-02-19T21:40:34.211Z,35.41
2023-02-19T21:41:34.172Z,35.47
2023-02-19T21:42:34.152Z,35.51
2023-02-19T21:43:34.166Z,35.65
2023-02-19T21:44:34.080Z,35.78
2023-02-19T21:47:53.827Z,36.08
2023-02-19T21:48:54.020Z,35.88
2023-02-19T21:49:53.705Z,35.75
2023-02-19T21:50:53.795Z,35.79
2023-02-19T21:51:54.244Z,35.33
2023-02-19T21:52:53.709Z,35.33
2023-02-19T21:53:53.696Z,35.56
2023-02-19T21:54:53.687Z,35.55
2023-02-19T21:55:58.726Z,35.45
2023-02-19T21:56:54.668Z,35.34
2023-02-19T21:57:53.650Z,35.54
2023-02-19T21:58:53.629Z,35.44
2023-02-19T21:59:53.610Z,35.36
2023-02-19T22:00:53.750Z,35.27
2023-02-19T22:01:53.589Z,35.41
2023-02-19T22:02:53.739Z,35.81
2023-02-19T22:03:53.620Z,35.98
2023-02-19T22:04:53.588Z,35.63
2023-02-19T22:05:53.580Z,35.67
2023-02-19T22:06:53.591Z,35.80
2023-02-19T22:07:53.580Z,35.57
2023-02-19T22:08:53.560Z,35.99
2023-02-19T22:09:53.571Z,36.20
2023-02-19T22:10:53.575Z,35.99
2023-02-19T22:11:53.582Z,36.01
2023-02-19T22:12:53.630Z,35.67
2023-02-19T22:13:53.641Z,36.47
2023-02-19T22:14:53.692Z,36.29
2023-02-19T22:15:53.753Z,35.66
2023-02-19T22:16:53.721Z,35.31
2023-02-19T22:20:33.498Z,35.67
2023-02-19T22:21:33.672Z,35.56
2023-02-19T22:22:33.404Z,35.50
2023-02-19T22:23:33.345Z,35.78
2023-02-19T22:24:33.360Z,35.96
2023-02-19T22:25:33.356Z,36.11
2023-02-19T22:26:33.336Z,36.14
2023-02-19T22:27:33.312Z,35.85
2023-02-19T22:28:33.353Z,35.86
2023-02-19T22:29:33.366Z,35.96
2023-02-19T22:30:33.395Z,35.90
2023-02-19T22:31:33.377Z,35.98
2023-02-19T22:32:33.603Z,36.01
2023-02-19T22:33:33.332Z,36.27
2023-02-19T22:34:33.267Z,36.09
2023-02-19T22:35:33.275Z,36.15
2023-02-19T22:36:33.280Z,36.12
2023-02-19T22:37:33.292Z,36.31
2023-02-19T22:38:33.285Z,36.19
2023-02-19T22:39:33.332Z,36.40
2023-02-19T22:40:33.215Z,36.33
2023-02-19T22:41:33.216Z,36.28
2023-02-19T22:42:35.713Z,36.40
2023-02-19T22:43:33.242Z,36.59
2023-02-19T22:44:33.191Z,36.68
2023-02-19T22:45:33.269Z,36.37
2023-02-19T22:46:33.169Z,36.34
2023-02-19T22:47:33.184Z,36.36
2023-02-19T22:48:33.205Z,36.47
2023-02-19T22:49:33.181Z,36.44
2023-02-19T22:50:33.194Z,36.42
2023-02-19T22:52:53.357Z,36.22
2023-02-19T22:53:53.573Z,36.54
2023-02-19T22:54:53.359Z,36.40
2023-02-19T22:55:53.277Z,36.37
2023-02-19T22:56:53.236Z,36.40
2023-02-19T22:57:53.222Z,36.47
2023-02-19T22:58:53.229Z,36.48
2023-02-19T22:59:53.192Z,36.51
2023-02-19T23:00:53.504Z,36.21
2023-02-19T23:01:54.004Z,36.24
2023-02-19T23:02:53.248Z,36.32
2023-02-19T23:03:53.252Z,36.50
2023-02-19T23:04:53.230Z,36.74
2023-02-19T23:05:53.182Z,36.59
2023-02-19T23:06:53.179Z,36.72
2023-02-19T23:07:53.210Z,36.93
2023-02-19T23:08:53.194Z,37.02
2023-02-19T23:09:53.197Z,37.03
2023-02-19T23:10:53.113Z,37.11
2023-02-19T23:11:53.117Z,37.21
2023-02-19T23:12:53.193Z,36.94
2023-02-19T23:13:53.174Z,37.45
2023-02-19T23:14:53.136Z,37.27
2023-02-19T23:15:53.106Z,37.22
2023-02-19T23:16:53.091Z,37.36
2023-02-19T23:17:53.128Z,37.66
2023-02-19T23:18:53.118Z,37.52
2023-02-19T23:19:53.070Z,37.95
2023-02-19T23:20:53.113Z,37.26
2023-02-19T23:21:53.042Z,37.69
2023-02-19T23:22:53.087Z,37.37